createdAt,value
2019-01-30T00:00:35.074Z,0.80
2019-01-30T00:01:38.603Z,0.70
2019-01-30T00:02:42.072Z,0.97
2019-01-30T00:03:45.743Z,0.93
2019-01-30T00:04:49.223Z,0.90
2019-01-30T00:05:52.846Z,1.27
2019-01-30T00:06:56.451Z,0.93
2019-01-30T00:07:59.931Z,1.07
2019-01-30T00:09:05.058Z,0.90
2019-01-30T00:10:09.806Z,1.00
2019-01-30T00:11:13.425Z,0.90
2019-01-30T00:12:16.950Z,0.97
2019-01-30T00:13:20.420Z,0.80
2019-01-30T00:14:24.012Z,0.90
2019-01-30T00:15:27.631Z,0.73
2019-01-30T00:16:31.290Z,1.40
2019-01-30T00:17:34.872Z,0.90
2019-01-30T00:18:38.461Z,0.80
2019-01-30T00:19:42.024Z,1.10
2019-01-30T00:20:45.597Z,0.90
2019-01-30T00:21:49.180Z,0.97
2019-01-30T00:22:52.686Z,0.80
2019-01-30T00:23:56.246Z,0.87
2019-01-30T00:24:59.792Z,1.00
2019-01-30T00:26:03.411Z,0.80
2019-01-30T00:27:07.015Z,0.80
2019-01-30T00:28:10.660Z,1.67
2019-01-30T00:29:14.186Z,0.87
2019-01-30T00:30:20.264Z,1.10
2019-01-30T00:31:23.839Z,1.03
2019-01-30T00:32:27.457Z,0.93
2019-01-30T00:33:30.980Z,1.10
2019-01-30T00:34:34.571Z,1.07
2019-01-30T00:35:38.121Z,0.80
2019-01-30T00:36:41.669Z,0.83
2019-01-30T00:37:45.221Z,0.90
2019-01-30T00:38:48.716Z,0.80
2019-01-30T00:39:52.263Z,0.80
2019-01-30T00:40:57.072Z,0.90
2019-01-30T00:42:00.549Z,0.90
2019-01-30T00:43:04.216Z,1.00
2019-01-30T00:44:07.864Z,1.00
2019-01-30T00:45:14.193Z,0.90
2019-01-30T00:46:17.702Z,0.90
2019-01-30T00:47:21.175Z,0.93
2019-01-30T00:48:24.791Z,1.00
2019-01-30T00:49:28.397Z,0.67
2019-01-30T00:50:31.873Z,1.10
2019-01-30T00:51:35.442Z,1.20
2019-01-30T00:52:38.938Z,0.90
2019-01-30T00:53:42.486Z,0.90
2019-01-30T00:54:46.001Z,0.80
2019-01-30T00:55:49.549Z,0.80
2019-01-30T00:56:53.117Z,0.90
2019-01-30T00:57:56.691Z,0.80
2019-01-30T00:59:00.245Z,0.93
2019-01-30T01:00:14.345Z,0.83
2019-01-30T01:01:11.085Z,0.70
2019-01-30T01:02:14.690Z,1.10
2019-01-30T01:03:18.373Z,0.90
2019-01-30T01:04:21.978Z,0.90
2019-01-30T01:05:25.556Z,1.00
2019-01-30T01:06:29.177Z,0.90
2019-01-30T01:07:32.812Z,1.10
2019-01-30T01:08:36.438Z,1.03
2019-01-30T01:09:39.997Z,0.70
2019-01-30T01:10:43.834Z,1.13
2019-01-30T01:11:47.333Z,0.87
2019-01-30T01:12:51.180Z,0.77
2019-01-30T01:13:54.793Z,0.90
2019-01-30T01:14:58.312Z,1.00
2019-01-30T01:16:01.906Z,0.93
2019-01-30T01:17:05.478Z,1.00
2019-01-30T01:18:09.058Z,0.70
2019-01-30T01:19:12.631Z,1.00
2019-01-30T01:20:17.885Z,0.73
2019-01-30T01:21:21.465Z,0.90
2019-01-30T01:22:25.090Z,1.00
2019-01-30T01:23:28.688Z,1.00
2019-01-30T01:24:32.187Z,0.50
2019-01-30T01:25:35.780Z,0.80
2019-01-30T01:26:39.375Z,1.23
2019-01-30T01:27:42.995Z,1.10
2019-01-30T01:28:46.577Z,0.70
2019-01-30T01:29:50.115Z,1.10
2019-01-30T01:30:53.587Z,0.80
2019-01-30T01:31:57.239Z,0.83
2019-01-30T01:33:00.817Z,0.80
2019-01-30T01:34:05.067Z,0.80
2019-01-30T01:35:08.799Z,0.80
2019-01-30T01:36:12.323Z,0.83
2019-01-30T01:37:15.840Z,0.70
2019-01-30T01:38:19.307Z,0.83
2019-01-30T01:39:22.814Z,0.73
2019-01-30T01:40:26.389Z,0.87
2019-01-30T01:41:29.863Z,0.77
2019-01-30T01:42:33.504Z,1.03
2019-01-30T01:43:37.238Z,1.00
2019-01-30T01:44:40.769Z,0.80
2019-01-30T01:45:44.372Z,0.80
2019-01-30T01:46:47.930Z,1.03
2019-01-30T01:47:51.643Z,0.90
2019-01-30T01:48:55.210Z,0.80
2019-01-30T01:49:58.775Z,0.80
2019-01-30T01:51:02.343Z,1.10
2019-01-30T01:52:05.825Z,1.00
2019-01-30T01:53:09.408Z,0.90
2019-01-30T01:54:12.964Z,0.90
2019-01-30T01:55:17.065Z,1.30
2019-01-30T01:56:20.636Z,0.80
2019-01-30T01:57:24.145Z,0.90
2019-01-30T01:58:27.701Z,1.00
2019-01-30T01:59:31.202Z,0.80
2019-01-30T02:00:35.748Z,1.00
2019-01-30T02:01:39.402Z,0.80
2019-01-30T02:02:43.159Z,0.93
2019-01-30T02:03:46.697Z,0.97
2019-01-30T02:04:50.353Z,0.80
2019-01-30T02:05:53.970Z,0.80
2019-01-30T02:06:57.523Z,0.90
2019-01-30T02:08:01.150Z,0.70
2019-01-30T02:09:07.660Z,0.90
2019-01-30T02:10:14.387Z,0.80
2019-01-30T02:11:17.965Z,0.90
2019-01-30T02:12:21.529Z,1.00
2019-01-30T02:13:25.181Z,0.90
2019-01-30T02:14:28.750Z,0.90
2019-01-30T02:15:32.370Z,1.10
2019-01-30T02:16:35.994Z,0.80
2019-01-30T02:17:39.660Z,1.10
2019-01-30T02:18:43.241Z,0.83
2019-01-30T02:19:46.740Z,0.90
2019-01-30T02:20:50.292Z,0.90
2019-01-30T02:21:53.794Z,0.80
2019-01-30T02:22:57.355Z,0.80
2019-01-30T02:24:00.948Z,0.77
2019-01-30T02:25:06.559Z,1.03
2019-01-30T02:26:10.202Z,0.80
2019-01-30T02:27:13.826Z,0.70
2019-01-30T02:28:17.514Z,0.80
2019-01-30T02:29:21.062Z,0.80
2019-01-30T02:30:31.575Z,0.73
2019-01-30T02:31:35.165Z,0.73
2019-01-30T02:32:38.708Z,1.00
2019-01-30T02:33:42.254Z,0.60
2019-01-30T02:34:45.762Z,0.80
2019-01-30T02:35:49.321Z,0.87
2019-01-30T02:36:58.224Z,0.90
2019-01-30T02:38:01.787Z,0.90
2019-01-30T02:39:07.248Z,0.70
2019-01-30T02:40:13.912Z,1.20
2019-01-30T02:41:17.522Z,0.90
2019-01-30T02:42:21.092Z,0.90
2019-01-30T02:43:24.802Z,0.90
2019-01-30T02:44:28.459Z,1.03
2019-01-30T02:45:32.059Z,0.67
2019-01-30T02:46:35.763Z,0.90
2019-01-30T02:47:39.341Z,1.40
2019-01-30T02:48:42.935Z,1.00
2019-01-30T02:49:46.535Z,0.70
2019-01-30T02:50:50.109Z,1.00
2019-01-30T02:51:53.663Z,0.87
2019-01-30T02:52:57.150Z,0.70
2019-01-30T02:54:00.660Z,0.80
2019-01-30T02:55:05.390Z,1.00
2019-01-30T02:56:08.871Z,0.87
2019-01-30T02:57:12.372Z,1.00
2019-01-30T02:58:15.851Z,0.90
2019-01-30T02:59:19.433Z,0.87
2019-01-30T03:00:30.932Z,0.80
2019-01-30T03:01:36.069Z,1.00
2019-01-30T03:02:39.681Z,0.90
2019-01-30T03:03:43.311Z,0.77
2019-01-30T03:04:46.805Z,0.80
2019-01-30T03:05:50.293Z,0.90
2019-01-30T03:06:53.855Z,0.80
2019-01-30T03:07:57.456Z,1.00
2019-01-30T03:09:01.076Z,0.70
2019-01-30T03:10:07.516Z,1.00
2019-01-30T03:11:10.999Z,0.80
2019-01-30T03:12:14.699Z,0.70
2019-01-30T03:13:18.283Z,0.87
2019-01-30T03:14:21.821Z,0.80
2019-01-30T03:15:25.453Z,0.97
2019-01-30T03:16:29.021Z,0.83
2019-01-30T03:17:32.579Z,0.70
2019-01-30T03:18:36.070Z,0.80
2019-01-30T03:19:39.649Z,0.83
2019-01-30T03:20:43.238Z,0.80
2019-01-30T03:21:46.793Z,0.70
2019-01-30T03:22:50.430Z,0.87
2019-01-30T03:23:53.944Z,1.10
2019-01-30T03:24:57.469Z,0.80
2019-01-30T03:26:00.964Z,1.03
2019-01-30T03:27:04.534Z,0.80
2019-01-30T03:28:08.081Z,0.90
2019-01-30T03:29:11.570Z,0.90
2019-01-30T03:30:23.677Z,0.60
2019-01-30T03:31:27.272Z,0.80
2019-01-30T03:32:30.812Z,1.10
2019-01-30T03:33:34.385Z,0.77
2019-01-30T03:34:37.943Z,1.00
2019-01-30T03:35:41.609Z,0.83
2019-01-30T03:36:45.103Z,0.83
2019-01-30T03:37:48.732Z,1.03
2019-01-30T03:38:52.298Z,0.87
2019-01-30T03:39:55.852Z,0.80
2019-01-30T03:40:59.448Z,0.80
2019-01-30T03:42:03.322Z,0.80
2019-01-30T03:43:06.999Z,0.80
2019-01-30T03:44:10.568Z,0.80
2019-01-30T03:45:16.904Z,0.90
2019-01-30T03:46:20.496Z,0.90
2019-01-30T03:47:23.998Z,0.93
2019-01-30T03:48:27.550Z,0.80
2019-01-30T03:49:31.047Z,0.77
2019-01-30T03:50:34.537Z,0.70
2019-01-30T03:51:38.198Z,0.70
2019-01-30T03:52:41.752Z,0.80
2019-01-30T03:53:45.310Z,0.83
2019-01-30T03:54:48.941Z,0.80
2019-01-30T03:55:52.438Z,0.90
2019-01-30T03:56:55.958Z,0.90
2019-01-30T03:57:59.446Z,0.70
2019-01-30T03:59:02.980Z,0.77
2019-01-30T04:00:12.758Z,0.80
2019-01-30T04:01:26.256Z,0.90
2019-01-30T04:02:21.938Z,0.80
2019-01-30T04:03:25.507Z,0.63
2019-01-30T04:04:29.018Z,0.90
2019-01-30T04:05:32.487Z,0.60
2019-01-30T04:06:36.057Z,1.03
2019-01-30T04:07:39.590Z,0.80
2019-01-30T04:08:43.055Z,0.70
2019-01-30T04:09:46.631Z,0.70
2019-01-30T04:10:50.187Z,0.70
2019-01-30T04:11:53.750Z,0.80
2019-01-30T04:12:57.322Z,0.67
2019-01-30T04:14:00.931Z,0.73
2019-01-30T04:15:06.757Z,0.70
2019-01-30T04:16:10.235Z,0.80
2019-01-30T04:17:13.725Z,0.83
2019-01-30T04:18:17.564Z,0.60
2019-01-30T04:19:21.192Z,0.60
2019-01-30T04:20:24.842Z,0.73
2019-01-30T04:21:28.475Z,0.87
2019-01-30T04:22:31.952Z,0.60
2019-01-30T04:23:35.486Z,0.80
2019-01-30T04:24:39.035Z,0.77
2019-01-30T04:25:42.507Z,0.80
2019-01-30T04:26:46.021Z,0.70
2019-01-30T04:27:49.565Z,0.67
2019-01-30T04:28:53.233Z,0.80
2019-01-30T04:29:56.854Z,0.57
2019-01-30T04:31:00.357Z,0.80
2019-01-30T04:32:04.143Z,0.80
2019-01-30T04:33:07.636Z,0.90
2019-01-30T04:34:11.186Z,0.67
2019-01-30T04:35:14.959Z,0.80
2019-01-30T04:36:18.500Z,0.80
2019-01-30T04:37:22.016Z,0.60
2019-01-30T04:38:25.611Z,0.60
2019-01-30T04:39:29.217Z,0.80
2019-01-30T04:40:32.806Z,0.70
2019-01-30T04:41:36.462Z,0.70
2019-01-30T04:42:40.089Z,0.90
2019-01-30T04:43:43.585Z,0.70
2019-01-30T04:44:47.105Z,0.57
2019-01-30T04:45:50.883Z,1.00
2019-01-30T04:46:54.526Z,0.80
2019-01-30T04:47:58.081Z,0.70
2019-01-30T04:49:01.655Z,0.60
2019-01-30T04:50:06.699Z,0.80
2019-01-30T04:51:10.260Z,0.73
2019-01-30T04:52:13.822Z,0.80
2019-01-30T04:53:17.300Z,0.80
2019-01-30T04:54:20.878Z,0.60
2019-01-30T04:55:24.478Z,0.70
2019-01-30T04:56:28.012Z,0.90
2019-01-30T04:57:31.520Z,0.70
2019-01-30T04:58:34.999Z,0.93
2019-01-30T04:59:38.488Z,0.77
2019-01-30T05:00:42.180Z,0.70
2019-01-30T05:01:49.672Z,0.60
2019-01-30T05:02:51.447Z,0.87
2019-01-30T05:03:55.032Z,0.60
2019-01-30T05:04:58.574Z,0.60
2019-01-30T05:06:02.180Z,0.60
2019-01-30T05:07:05.702Z,0.50
2019-01-30T05:08:09.315Z,0.60
2019-01-30T05:09:13.049Z,0.70
2019-01-30T05:10:16.592Z,0.70
2019-01-30T05:11:20.126Z,0.80
2019-01-30T05:12:23.616Z,0.70
2019-01-30T05:13:27.164Z,0.70
2019-01-30T05:14:30.663Z,0.63
2019-01-30T05:15:34.243Z,0.70
2019-01-30T05:16:37.837Z,0.60
2019-01-30T05:17:41.456Z,0.80
2019-01-30T05:18:44.953Z,0.60
2019-01-30T05:19:48.449Z,0.60
2019-01-30T05:20:52.007Z,1.03
2019-01-30T05:21:55.528Z,0.60
2019-01-30T05:22:59.118Z,0.67
2019-01-30T05:24:02.595Z,0.77
2019-01-30T05:25:08.154Z,0.80
2019-01-30T05:26:11.644Z,0.60
2019-01-30T05:27:15.269Z,0.70
2019-01-30T05:28:18.830Z,0.80
2019-01-30T05:29:22.339Z,0.70
2019-01-30T05:30:28.669Z,0.80
2019-01-30T05:31:32.182Z,0.67
2019-01-30T05:32:35.689Z,0.70
2019-01-30T05:33:39.187Z,0.70
2019-01-30T05:34:42.679Z,0.50
2019-01-30T05:35:46.163Z,1.00
2019-01-30T05:36:49.719Z,0.80
2019-01-30T05:37:54.267Z,0.70
2019-01-30T05:38:57.835Z,0.70
2019-01-30T05:40:01.380Z,0.80
2019-01-30T05:41:04.955Z,1.00
2019-01-30T05:42:08.835Z,0.70
2019-01-30T05:43:13.035Z,0.80
2019-01-30T05:44:16.598Z,0.90
2019-01-30T05:45:20.233Z,1.77
2019-01-30T05:46:23.724Z,2.10
2019-01-30T05:47:27.331Z,1.37
2019-01-30T05:48:30.941Z,1.10
2019-01-30T05:49:34.454Z,1.20
2019-01-30T05:50:38.105Z,2.00
2019-01-30T05:51:41.633Z,5.50
2019-01-30T05:52:45.253Z,7.57
2019-01-30T05:53:48.850Z,7.63
2019-01-30T05:54:52.428Z,6.70
2019-01-30T05:55:55.975Z,6.13
2019-01-30T05:56:59.568Z,6.30
2019-01-30T05:58:03.051Z,5.23
2019-01-30T05:59:06.576Z,5.77
2019-01-30T06:00:16.239Z,4.90
2019-01-30T06:01:19.729Z,6.07
2019-01-30T06:02:23.240Z,5.20
2019-01-30T06:03:26.725Z,5.53
2019-01-30T06:04:30.343Z,5.40
2019-01-30T06:05:33.938Z,4.27
2019-01-30T06:06:37.428Z,4.70
2019-01-30T06:07:41.064Z,5.43
2019-01-30T06:08:44.556Z,5.30
2019-01-30T06:09:48.336Z,5.37
2019-01-30T06:10:51.998Z,4.43
2019-01-30T06:11:55.614Z,5.23
2019-01-30T06:12:59.171Z,5.17
2019-01-30T06:14:02.772Z,4.87
2019-01-30T06:15:09.465Z,5.90
2019-01-30T06:16:13.022Z,4.83
2019-01-30T06:17:16.538Z,4.37
2019-01-30T06:18:20.085Z,4.77
2019-01-30T06:19:23.599Z,4.80
2019-01-30T06:20:28.867Z,5.63
2019-01-30T06:21:32.367Z,4.60
2019-01-30T06:22:35.870Z,5.00
2019-01-30T06:23:39.480Z,4.53
2019-01-30T06:24:42.977Z,4.73
2019-01-30T06:25:46.602Z,4.90
2019-01-30T06:26:50.163Z,4.80
2019-01-30T06:27:53.796Z,4.27
2019-01-30T06:28:57.400Z,4.17
2019-01-30T06:30:00.920Z,4.90
2019-01-30T06:31:04.596Z,6.03
2019-01-30T06:32:08.073Z,4.37
2019-01-30T06:33:11.653Z,3.90
2019-01-30T06:34:15.206Z,4.13
2019-01-30T06:35:19.244Z,4.00
2019-01-30T06:36:22.921Z,4.70
2019-01-30T06:37:26.435Z,4.67
2019-01-30T06:38:29.977Z,4.60
2019-01-30T06:39:33.624Z,4.90
2019-01-30T06:40:37.172Z,4.40
2019-01-30T06:41:40.751Z,4.30
2019-01-30T06:42:44.326Z,4.30
2019-01-30T06:43:47.839Z,4.67
2019-01-30T06:44:51.467Z,4.47
2019-01-30T06:45:55.050Z,3.97
2019-01-30T06:46:58.687Z,3.90
2019-01-30T06:48:02.278Z,4.47
2019-01-30T06:49:05.907Z,5.00
2019-01-30T06:50:12.159Z,3.97
2019-01-30T06:51:15.735Z,4.30
2019-01-30T06:52:19.366Z,4.40
2019-01-30T06:53:23.017Z,3.20
2019-01-30T06:54:26.586Z,3.73
2019-01-30T06:55:30.072Z,4.50
2019-01-30T06:56:33.686Z,4.70
2019-01-30T06:57:37.324Z,4.40
2019-01-30T06:58:40.871Z,4.40
2019-01-30T06:59:44.466Z,3.40
2019-01-30T07:00:48.012Z,4.30
2019-01-30T07:01:51.518Z,4.10
2019-01-30T07:02:56.347Z,3.70
2019-01-30T07:03:59.976Z,4.00
2019-01-30T07:05:03.656Z,4.47
2019-01-30T07:06:07.906Z,3.30
2019-01-30T07:07:11.531Z,3.90
2019-01-30T07:08:15.205Z,3.83
2019-01-30T07:09:18.744Z,3.70
2019-01-30T07:10:27.471Z,4.10
2019-01-30T07:11:31.017Z,3.70
2019-01-30T07:12:34.567Z,3.73
2019-01-30T07:13:38.115Z,3.60
2019-01-30T07:14:41.601Z,3.50
2019-01-30T07:15:45.079Z,4.73
2019-01-30T07:16:48.588Z,3.53
2019-01-30T07:17:52.205Z,3.63
2019-01-30T07:18:55.731Z,3.67
2019-01-30T07:19:59.235Z,3.70
2019-01-30T07:21:02.715Z,3.00
2019-01-30T07:22:06.355Z,2.67
2019-01-30T07:23:10.013Z,3.47
2019-01-30T07:24:13.605Z,3.90
2019-01-30T07:25:21.790Z,3.67
2019-01-30T07:26:25.362Z,3.33
2019-01-30T07:27:28.911Z,3.33
2019-01-30T07:28:32.607Z,3.40
2019-01-30T07:29:36.248Z,3.37
2019-01-30T07:30:39.857Z,2.70
2019-01-30T07:31:43.430Z,3.43
2019-01-30T07:32:47.027Z,3.30
2019-01-30T07:33:50.564Z,3.40
2019-01-30T07:34:54.151Z,2.67
2019-01-30T07:35:57.697Z,3.33
2019-01-30T07:37:01.182Z,3.27
2019-01-30T07:38:05.088Z,3.23
2019-01-30T07:39:09.444Z,3.20
2019-01-30T07:40:15.195Z,3.20
2019-01-30T07:41:18.748Z,4.00
2019-01-30T07:42:22.314Z,2.83
2019-01-30T07:43:25.886Z,2.97
2019-01-30T07:44:29.520Z,3.70
2019-01-30T07:45:33.238Z,3.13
2019-01-30T07:46:36.826Z,3.27
2019-01-30T07:47:40.355Z,3.60
2019-01-30T07:48:43.880Z,3.20
2019-01-30T07:49:47.505Z,3.00
2019-01-30T07:50:50.983Z,3.87
2019-01-30T07:51:54.499Z,3.20
2019-01-30T07:52:58.886Z,3.37
2019-01-30T07:54:02.642Z,4.40
2019-01-30T07:55:09.422Z,3.33
2019-01-30T07:56:13.033Z,3.90
2019-01-30T07:57:16.542Z,3.87
2019-01-30T07:58:20.128Z,3.93
2019-01-30T07:59:23.729Z,4.47
2019-01-30T08:00:29.320Z,4.57
2019-01-30T08:01:32.871Z,4.47
2019-01-30T08:02:36.329Z,4.67
2019-01-30T08:03:39.829Z,4.50
2019-01-30T08:04:43.377Z,4.20
2019-01-30T08:05:46.981Z,4.17
2019-01-30T08:06:50.620Z,4.67
2019-01-30T08:07:54.255Z,4.93
2019-01-30T08:08:57.758Z,4.30
2019-01-30T08:10:01.235Z,3.30
2019-01-30T08:11:07.265Z,3.73
2019-01-30T08:12:12.595Z,5.03
2019-01-30T08:13:15.707Z,4.40
2019-01-30T08:14:19.280Z,3.93
2019-01-30T08:15:24.223Z,4.37
2019-01-30T08:16:27.770Z,4.53
2019-01-30T08:17:31.596Z,4.20
2019-01-30T08:18:35.140Z,4.10
2019-01-30T08:19:38.705Z,3.90
2019-01-30T08:20:42.324Z,3.90
2019-01-30T08:21:45.936Z,3.30
2019-01-30T08:22:49.826Z,3.30
2019-01-30T08:23:53.301Z,3.33
2019-01-30T08:24:57.066Z,2.93
2019-01-30T08:26:00.715Z,2.87
2019-01-30T08:27:04.543Z,2.93
2019-01-30T08:28:08.456Z,2.40
2019-01-30T08:29:12.178Z,2.57
2019-01-30T08:30:22.557Z,2.40
2019-01-30T08:31:26.862Z,2.57
2019-01-30T08:32:30.665Z,2.20
2019-01-30T08:33:34.159Z,2.37
2019-01-30T08:34:38.017Z,2.43
2019-01-30T08:35:41.688Z,2.40
2019-01-30T08:36:45.252Z,2.30
2019-01-30T08:37:48.993Z,2.10
2019-01-30T08:38:52.723Z,2.10
2019-01-30T08:39:56.292Z,2.40
2019-01-30T08:40:59.792Z,2.40
2019-01-30T08:42:03.348Z,2.07
2019-01-30T08:43:06.905Z,2.03
2019-01-30T08:44:10.452Z,2.20
2019-01-30T08:45:28.636Z,1.93
2019-01-30T08:46:32.209Z,1.80
2019-01-30T08:47:35.758Z,1.93
2019-01-30T08:48:39.358Z,2.03
2019-01-30T08:49:42.904Z,2.10
2019-01-30T08:50:46.517Z,2.20
2019-01-30T08:51:50.005Z,1.97
2019-01-30T08:52:53.632Z,1.83
2019-01-30T08:53:57.215Z,1.53
2019-01-30T08:55:00.774Z,2.00
2019-01-30T08:56:04.430Z,1.50
2019-01-30T08:57:08.080Z,1.90
2019-01-30T08:58:11.573Z,1.87
2019-01-30T08:59:15.090Z,1.80
2019-01-30T09:00:24.054Z,1.90
2019-01-30T09:01:27.540Z,1.90
2019-01-30T09:02:31.177Z,1.73
2019-01-30T09:03:34.652Z,1.87
2019-01-30T09:04:38.231Z,1.93
2019-01-30T09:05:41.830Z,1.90
2019-01-30T09:06:45.336Z,1.83
2019-01-30T09:07:48.914Z,1.97
2019-01-30T09:08:52.386Z,2.07
2019-01-30T09:09:55.954Z,2.20
2019-01-30T09:10:59.575Z,1.70
2019-01-30T09:12:03.307Z,1.83
2019-01-30T09:13:06.787Z,1.90
2019-01-30T09:14:10.319Z,1.67
2019-01-30T09:15:16.367Z,1.73
2019-01-30T09:16:19.858Z,1.63
2019-01-30T09:17:23.417Z,2.07
2019-01-30T09:18:27.040Z,1.93
2019-01-30T09:19:30.589Z,1.30
2019-01-30T09:20:34.112Z,1.43
2019-01-30T09:21:37.675Z,1.60
2019-01-30T09:22:41.310Z,1.80
2019-01-30T09:23:44.835Z,2.00
2019-01-30T09:24:48.323Z,1.60
2019-01-30T09:25:51.838Z,1.90
2019-01-30T09:26:55.415Z,1.70
2019-01-30T09:28:00.527Z,1.63
2019-01-30T09:29:04.267Z,1.70
2019-01-30T09:30:19.404Z,2.13
2019-01-30T09:31:22.985Z,2.00
2019-01-30T09:32:26.687Z,2.03
2019-01-30T09:33:30.232Z,1.70
2019-01-30T09:34:33.864Z,1.50
2019-01-30T09:35:37.452Z,1.70
2019-01-30T09:36:41.000Z,1.80
2019-01-30T09:37:44.652Z,1.73
2019-01-30T09:38:48.259Z,1.50
2019-01-30T09:39:51.834Z,1.43
2019-01-30T09:40:55.404Z,1.73
2019-01-30T09:41:58.909Z,1.60
2019-01-30T09:43:02.539Z,1.50
2019-01-30T09:44:06.117Z,1.40
2019-01-30T09:45:15.190Z,1.60
2019-01-30T09:46:18.785Z,1.80
2019-01-30T09:47:22.441Z,1.80
2019-01-30T09:48:26.115Z,1.70
2019-01-30T09:49:29.623Z,1.90
2019-01-30T09:50:34.438Z,1.50
2019-01-30T09:51:38.049Z,1.97
2019-01-30T09:52:41.706Z,1.90
2019-01-30T09:53:45.220Z,1.80
2019-01-30T09:54:48.704Z,1.43
2019-01-30T09:55:52.343Z,1.83
2019-01-30T09:56:55.824Z,1.60
2019-01-30T09:57:59.320Z,1.57
2019-01-30T09:59:02.883Z,1.70
2019-01-30T10:00:12.086Z,1.40
2019-01-30T10:01:15.690Z,1.33
2019-01-30T10:02:19.268Z,1.50
2019-01-30T10:03:22.774Z,1.53
2019-01-30T10:04:26.267Z,1.43
2019-01-30T10:05:29.885Z,1.40
2019-01-30T10:06:33.359Z,1.63
2019-01-30T10:07:36.938Z,1.37
2019-01-30T10:08:40.434Z,1.80
2019-01-30T10:09:43.934Z,1.40
2019-01-30T10:10:47.454Z,1.60
2019-01-30T10:11:50.996Z,1.40
2019-01-30T10:12:54.637Z,1.83
2019-01-30T10:13:58.134Z,1.33
2019-01-30T10:15:01.630Z,1.50
2019-01-30T10:16:05.373Z,1.20
2019-01-30T10:17:09.130Z,1.37
2019-01-30T10:18:13.655Z,1.37
2019-01-30T10:19:17.275Z,1.57
2019-01-30T10:20:23.177Z,1.70
2019-01-30T10:21:27.036Z,1.50
2019-01-30T10:22:30.567Z,1.70
2019-01-30T10:23:34.042Z,1.50
2019-01-30T10:24:37.578Z,1.30
2019-01-30T10:25:41.126Z,1.73
2019-01-30T10:26:44.630Z,1.50
2019-01-30T10:27:48.206Z,1.50
2019-01-30T10:28:51.751Z,1.47
2019-01-30T10:29:55.348Z,1.53
2019-01-30T10:30:58.897Z,1.53
2019-01-30T10:32:02.438Z,1.30
2019-01-30T10:33:06.186Z,1.83
2019-01-30T10:34:09.728Z,1.67
2019-01-30T10:35:13.508Z,1.37
2019-01-30T10:36:17.018Z,1.40
2019-01-30T10:37:20.636Z,1.70
2019-01-30T10:38:24.212Z,1.90
2019-01-30T10:39:27.695Z,1.50
2019-01-30T10:40:31.280Z,1.47
2019-01-30T10:41:34.791Z,1.67
2019-01-30T10:42:38.455Z,1.20
2019-01-30T10:43:41.992Z,1.20
2019-01-30T10:44:45.503Z,1.27
2019-01-30T10:45:49.008Z,1.50
2019-01-30T10:46:52.514Z,1.40
2019-01-30T10:47:56.114Z,1.40
2019-01-30T10:48:59.603Z,1.20
2019-01-30T10:50:04.700Z,1.33
2019-01-30T10:51:08.240Z,1.30
2019-01-30T10:52:11.713Z,2.50
2019-01-30T10:53:15.451Z,2.30
2019-01-30T10:54:19.053Z,2.00
2019-01-30T10:55:25.414Z,2.07
2019-01-30T10:56:28.987Z,2.13
2019-01-30T10:57:32.548Z,2.30
2019-01-30T10:58:36.124Z,1.83
2019-01-30T10:59:39.688Z,1.80
2019-01-30T11:00:45.972Z,1.87
2019-01-30T11:01:49.627Z,1.87
2019-01-30T11:02:53.261Z,1.80
2019-01-30T11:03:57.693Z,1.80
2019-01-30T11:05:01.285Z,1.87
2019-01-30T11:06:05.399Z,1.40
2019-01-30T11:07:08.959Z,1.70
2019-01-30T11:08:12.446Z,1.90
2019-01-30T11:09:15.932Z,1.80
2019-01-30T11:10:20.657Z,1.77
2019-01-30T11:11:24.264Z,1.60
2019-01-30T11:12:28.263Z,1.80
2019-01-30T11:13:32.149Z,1.43
2019-01-30T11:14:36.072Z,1.63
2019-01-30T11:15:40.187Z,1.67
2019-01-30T11:16:44.163Z,1.63
2019-01-30T11:17:48.275Z,1.40
2019-01-30T11:18:52.368Z,1.67
2019-01-30T11:19:56.995Z,1.80
2019-01-30T11:21:00.890Z,1.70
2019-01-30T11:22:05.083Z,1.60
2019-01-30T11:23:09.429Z,1.70
2019-01-30T11:24:14.447Z,1.60
2019-01-30T11:25:29.795Z,1.90
2019-01-30T11:26:33.687Z,1.60
2019-01-30T11:27:37.193Z,1.50
2019-01-30T11:28:40.680Z,1.73
2019-01-30T11:29:44.189Z,1.70
2019-01-30T11:30:47.749Z,1.30
2019-01-30T11:31:51.306Z,1.53
2019-01-30T11:32:55.604Z,1.80
2019-01-30T11:34:07.335Z,1.73
2019-01-30T11:35:05.974Z,1.80
2019-01-30T11:36:09.515Z,1.77
2019-01-30T11:37:13.073Z,1.50
2019-01-30T11:38:16.722Z,1.50
2019-01-30T11:39:20.302Z,1.37
2019-01-30T11:40:24.209Z,1.53
2019-01-30T11:41:27.767Z,1.60
2019-01-30T11:42:31.386Z,1.50
2019-01-30T11:43:34.990Z,1.57
2019-01-30T11:44:38.472Z,1.60
2019-01-30T11:45:43.999Z,1.40
2019-01-30T11:46:47.499Z,1.60
2019-01-30T11:47:51.050Z,2.20
2019-01-30T11:48:56.495Z,1.70
2019-01-30T11:49:59.805Z,1.70
2019-01-30T11:51:03.355Z,1.40
2019-01-30T11:52:06.929Z,1.50
2019-01-30T11:53:10.455Z,1.30
2019-01-30T11:54:14.056Z,1.77
2019-01-30T11:55:18.680Z,1.30
2019-01-30T11:56:22.321Z,1.70
2019-01-30T11:57:25.875Z,1.30
2019-01-30T11:58:29.527Z,1.50
2019-01-30T11:59:33.167Z,1.47
2019-01-30T12:00:44.580Z,1.70
2019-01-30T12:01:48.353Z,1.30
2019-01-30T12:02:51.911Z,1.40
2019-01-30T12:03:55.389Z,1.67
2019-01-30T12:04:59.836Z,1.60
2019-01-30T12:06:03.460Z,1.13
2019-01-30T12:07:07.188Z,1.40
2019-01-30T12:08:10.768Z,1.40
2019-01-30T12:09:14.322Z,1.47
2019-01-30T12:10:17.987Z,1.30
2019-01-30T12:11:21.481Z,1.47
2019-01-30T12:12:24.964Z,1.33
2019-01-30T12:13:28.699Z,1.60
2019-01-30T12:14:32.279Z,1.40
2019-01-30T12:15:38.469Z,1.40
2019-01-30T12:16:41.063Z,1.27
2019-01-30T12:17:44.892Z,1.30
2019-01-30T12:18:48.384Z,1.40
2019-01-30T12:19:51.893Z,1.47
2019-01-30T12:20:55.462Z,1.47
2019-01-30T12:21:59.024Z,1.63
2019-01-30T12:23:02.653Z,1.40
2019-01-30T12:24:06.275Z,1.40
2019-01-30T12:25:17.739Z,1.40
2019-01-30T12:26:21.283Z,1.60
2019-01-30T12:27:24.868Z,1.73
2019-01-30T12:28:28.489Z,1.37
2019-01-30T12:29:32.063Z,1.57
2019-01-30T12:30:35.544Z,1.53
2019-01-30T12:31:39.123Z,1.30
2019-01-30T12:32:42.679Z,1.43
2019-01-30T12:33:46.168Z,1.37
2019-01-30T12:34:49.688Z,1.50
2019-01-30T12:35:53.227Z,1.60
2019-01-30T12:36:56.747Z,1.57
2019-01-30T12:38:00.300Z,1.60
2019-01-30T12:39:07.029Z,1.60
2019-01-30T12:40:13.515Z,1.70
2019-01-30T12:41:17.011Z,1.30
2019-01-30T12:42:20.604Z,1.40
2019-01-30T12:43:24.184Z,1.40
2019-01-30T12:44:27.729Z,1.30
2019-01-30T12:45:38.184Z,1.37
2019-01-30T12:46:41.705Z,1.60
2019-01-30T12:47:45.272Z,1.40
2019-01-30T12:48:49.005Z,1.13
2019-01-30T12:49:52.587Z,1.30
2019-01-30T12:50:56.268Z,1.50
2019-01-30T12:51:59.837Z,1.40
2019-01-30T12:53:03.492Z,1.33
2019-01-30T12:54:07.205Z,1.57
2019-01-30T12:55:12.125Z,1.47
2019-01-30T12:56:15.607Z,1.50
2019-01-30T12:57:19.186Z,1.37
2019-01-30T12:58:22.853Z,1.40
2019-01-30T12:59:26.401Z,1.53
2019-01-30T13:00:32.951Z,1.20
2019-01-30T13:01:36.617Z,1.30
2019-01-30T13:02:40.245Z,1.30
2019-01-30T13:03:43.790Z,1.60
2019-01-30T13:04:47.420Z,1.57
2019-01-30T13:05:50.990Z,1.30
2019-01-30T13:06:54.510Z,1.50
2019-01-30T13:07:58.180Z,1.27
2019-01-30T13:09:01.654Z,1.13
2019-01-30T13:10:08.253Z,1.47
2019-01-30T13:11:11.918Z,1.40
2019-01-30T13:12:15.431Z,1.37
2019-01-30T13:13:19.047Z,1.10
2019-01-30T13:14:22.601Z,1.30
2019-01-30T13:15:28.140Z,1.50
2019-01-30T13:16:31.627Z,1.40
2019-01-30T13:17:35.096Z,1.20
2019-01-30T13:18:38.618Z,1.50
2019-01-30T13:19:42.192Z,1.43
2019-01-30T13:20:45.667Z,1.40
2019-01-30T13:21:49.299Z,1.43
2019-01-30T13:22:52.922Z,1.47
2019-01-30T13:23:56.430Z,1.23
2019-01-30T13:24:59.974Z,1.40
2019-01-30T13:26:03.509Z,1.57
2019-01-30T13:27:07.233Z,1.53
2019-01-30T13:28:10.803Z,1.90
2019-01-30T13:29:14.337Z,2.00
2019-01-30T13:30:20.752Z,1.90
2019-01-30T13:31:24.256Z,1.83
2019-01-30T13:32:27.798Z,2.40
2019-01-30T13:33:31.425Z,2.30
2019-01-30T13:34:34.995Z,2.30
2019-01-30T13:35:38.723Z,2.57
2019-01-30T13:36:42.243Z,2.67
2019-01-30T13:37:45.875Z,2.27
2019-01-30T13:38:49.518Z,2.23
2019-01-30T13:39:53.046Z,2.57
2019-01-30T13:40:57.858Z,2.33
2019-01-30T13:42:01.312Z,2.97
2019-01-30T13:43:05.840Z,2.60
2019-01-30T13:44:09.395Z,2.37
2019-01-30T13:45:14.935Z,2.20
2019-01-30T13:46:18.408Z,2.33
2019-01-30T13:47:21.892Z,2.50
2019-01-30T13:48:25.551Z,2.17
2019-01-30T13:49:30.359Z,2.10
2019-01-30T13:50:33.977Z,2.40
2019-01-30T13:51:37.510Z,2.30
2019-01-30T13:52:40.992Z,2.33
2019-01-30T13:53:44.627Z,2.37
2019-01-30T13:54:48.114Z,2.33
2019-01-30T13:55:52.847Z,2.43
2019-01-30T13:56:56.344Z,2.40
2019-01-30T13:58:00.093Z,2.60
2019-01-30T13:59:03.706Z,2.37
2019-01-30T14:00:16.240Z,2.33
2019-01-30T14:01:19.856Z,2.87
2019-01-30T14:02:23.494Z,2.40
2019-01-30T14:03:27.071Z,2.77
2019-01-30T14:04:30.558Z,2.40
2019-01-30T14:05:34.293Z,2.20
2019-01-30T14:06:37.776Z,2.33
2019-01-30T14:07:41.417Z,2.63
2019-01-30T14:08:44.895Z,2.27
2019-01-30T14:09:48.543Z,2.20
2019-01-30T14:10:52.137Z,2.00